Time;durP1;ratioP1;P1;durP2;ratioP2;P2;SDS_P1;SDS_P2;PMS_P1;PMS_P2;Temp;Humidity;BMP_temperature;BMP_pressure;BME280_temperature;BME280_humidity;BME280_pressure;Samples;Min_cycle;Max_cycle;Signal;HPM_P1;HPM_P2
2021/12/26 00:01:06;;;;;;;;;;;;;;;-5.00;73.18;101016.06;4992003;28;20046;-73
2021/12/26 00:03:32;;;;;;;;;;;;;;;-5.03;72.88;101017.69;4996181;28;20298;-72
2021/12/26 00:06:03;;;;;;;;;;;;;;;-5.04;73.40;101013.41;4991832;28;20018;-73
2021/12/26 00:08:28;;;;;;;;;;;;;;;-5.04;72.95;101000.59;4993041;28;19928;-74
2021/12/26 00:10:54;;;;;;;;;;;;;;;-5.05;72.94;100998.88;4996451;28;20583;-74
2021/12/26 00:13:21;;;;;;;;;;;;;;;-5.00;72.82;100999.84;4998792;28;20287;-76
2021/12/26 00:15:46;;;;;;;;;;;;;;;-5.07;72.88;101000.56;5001344;28;19937;-75
2021/12/26 00:18:12;;;;;;;;;;;;;;;-5.09;72.95;100992.81;4999104;28;19918;-74
2021/12/26 00:20:38;;;;;;;;;;;;;;;-5.05;72.67;100993.75;4997789;28;19917;-75
2021/12/26 00:23:04;;;;;;;;;;;;;;;-5.03;72.65;101003.22;5000476;28;19925;-77
2021/12/26 00:25:30;;;;;;;;;;;;;;;-5.06;72.74;100992.91;4993796;28;19936;-75
2021/12/26 00:27:55;;;;;;;;;;;;;;;-5.08;72.70;100988.59;5004353;28;19921;-75
2021/12/26 00:30:21;;;;;;;;;;;;;;;-5.05;72.11;100991.19;4998292;28;19926;-74
2021/12/26 00:32:47;;;;;;;;;;;;;;;-5.06;72.77;100989.44;5003690;28;20007;-75
2021/12/26 00:35:14;;;;;;;;;;;;;;;-5.03;72.32;100998.09;4998334;28;20087;-75
2021/12/26 00:37:39;;;;;;;;;;;;;;;-5.10;72.79;100997.94;4998829;28;19921;-75
2021/12/26 00:40:05;;;;;;;;;;;;;;;-5.05;72.73;100992.06;5000387;28;20365;-76
2021/12/26 00:42:30;;;;;;;;;;;;;;;-5.11;71.98;100994.47;5002026;28;19997;-75
2021/12/26 00:44:56;;;;;;;;;;;;;;;-5.10;72.47;100990.25;5006860;28;19925;-75
2021/12/26 00:47:21;;;;;;;;;;;;;;;-5.12;71.43;100988.50;5000617;28;20052;-77
2021/12/26 00:49:46;;;;;;;;;;;;;;;-5.10;71.52;100987.69;5007522;28;19918;-75
2021/12/26 00:52:12;;;;;;;;;;;;;;;-5.10;71.79;100985.97;4994503;28;19964;-75
2021/12/26 00:54:37;;;;;;;;;;;;;;;-5.12;71.19;100987.63;5005981;28;20052;-75
2021/12/26 00:57:03;;;;;;;;;;;;;;;-5.14;71.69;100990.16;5002678;28;19973;-77
2021/12/26 00:59:28;;;;;;;;;;;;;;;-5.09;71.89;100987.69;5009509;28;19921;-77
2021/12/26 01:01:54;;;;;;;;;;;;;;;-5.15;71.14;100992.72;4997941;28;19923;-78
2021/12/26 01:04:20;;;;;;;;;;;;;;;-5.19;71.65;101002.03;5002051;28;21442;-76
2021/12/26 01:06:46;;;;;;;;;;;;;;;-5.21;72.56;100993.44;5002068;28;19921;-75
2021/12/26 01:09:15;;;;;;;;;;;;;;;-5.23;72.82;100999.34;4997798;28;20339;-75
2021/12/26 01:11:47;;;;;;;;;;;;;;;-5.17;72.48;100991.81;5000997;28;19921;-78
2021/12/26 01:14:13;;;;;;;;;;;;;;;-5.24;72.97;100995.94;4989190;28;20502;-74
2021/12/26 01:16:39;;;;;;;;;;;;;;;-5.19;73.46;100996.03;4993083;28;20691;-76
2021/12/26 01:19:10;;;;;;;;;;;;;;;-5.21;72.94;100993.44;4980123;28;19925;-75
2021/12/26 01:21:35;;;;;;;;;;;;;;;-5.23;72.23;101000.22;4985557;28;19956;-78
2021/12/26 01:24:03;;;;;;;;;;;;;;;-5.22;73.53;100998.53;4983571;28;19926;-77
2021/12/26 01:26:29;;;;;;;;;;;;;;;-5.25;72.50;100991.66;4986518;28;20065;-81
2021/12/26 01:28:54;;;;;;;;;;;;;;;-5.19;73.13;100996.03;5003538;28;20009;-78
2021/12/26 01:31:20;;;;;;;;;;;;;;;-5.19;73.56;100989.22;4999206;28;19925;-80
2021/12/26 01:33:47;;;;;;;;;;;;;;;-5.20;72.59;100984.06;5008517;28;20047;-79
2021/12/26 01:36:13;;;;;;;;;;;;;;;-5.21;73.51;100987.44;4989656;28;19936;-79
2021/12/26 01:38:38;;;;;;;;;;;;;;;-5.24;73.74;100988.25;5032832;28;19918;-79
2021/12/26 01:41:09;;;;;;;;;;;;;;;-5.23;73.14;100987.44;4997141;28;20024;-79
2021/12/26 01:43:35;;;;;;;;;;;;;;;-5.29;72.91;100990.72;5008195;28;19975;-79
2021/12/26 01:46:00;;;;;;;;;;;;;;;-5.32;73.39;100992.38;4998375;28;20330;-77
2021/12/26 01:48:26;;;;;;;;;;;;;;;-5.29;73.01;100995.84;5010520;28;20019;-79
2021/12/26 01:50:52;;;;;;;;;;;;;;;-5.33;72.89;100993.19;5000789;28;20295;-78
2021/12/26 01:53:19;;;;;;;;;;;;;;;-5.34;73.30;100992.31;5004238;28;19921;-79
2021/12/26 01:55:46;;;;;;;;;;;;;;;-5.32;72.67;100988.09;4994604;28;20189;-80
2021/12/26 01:58:11;;;;;;;;;;;;;;;-5.35;72.37;100987.16;5000233;28;19925;-79
2021/12/26 02:00:38;;;;;;;;;;;;;;;-5.31;72.70;100981.28;4999527;28;19917;-77
2021/12/26 02:03:04;;;;;;;;;;;;;;;-5.32;73.09;100982.97;5002833;28;20248;-80
2021/12/26 02:05:29;;;;;;;;;;;;;;;-5.39;74.08;100982.81;5008061;28;19967;-78
2021/12/26 02:07:54;;;;;;;;;;;;;;;-5.43;74.68;100990.44;5041838;28;19976;-79
2021/12/26 02:10:19;;;;;;;;;;;;;;;-5.44;74.76;100991.28;4993303;28;19930;-77
2021/12/26 02:12:45;;;;;;;;;;;;;;;-5.47;74.04;100980.97;5001810;28;19922;-77
2021/12/26 02:15:10;;;;;;;;;;;;;;;-5.46;74.38;100982.69;5003280;28;19922;-80
2021/12/26 02:17:36;;;;;;;;;;;;;;;-5.38;74.21;100977.75;4997994;28;20409;-80
2021/12/26 02:20:16;;;;;;;;;;;;;;;-5.43;74.43;100975.09;4996204;28;19917;-77
2021/12/26 02:22:46;;;;;;;;;;;;;;;-5.41;74.91;100976.81;5002156;28;19952;-78
2021/12/26 02:27:52;;;;;;;;;;;;;;;-5.49;74.94;100971.53;5014622;28;19918;-79
2021/12/26 02:30:17;;;;;;;;;;;;;;;-5.48;74.77;100969.00;5003690;28;19921;-78
2021/12/26 02:32:46;;;;;;;;;;;;;;;-5.53;75.11;100968.03;5040872;28;19956;-80
2021/12/26 02:35:12;;;;;;;;;;;;;;;-5.56;75.21;100970.53;4996672;28;19936;-79
2021/12/26 02:37:37;;;;;;;;;;;;;;;-5.56;75.50;100970.53;5023566;28;19921;-78
2021/12/26 02:40:04;;;;;;;;;;;;;;;-5.59;75.70;100963.66;5003401;28;19928;-76
2021/12/26 02:42:29;;;;;;;;;;;;;;;-5.55;75.74;100962.03;5003737;28;19960;-80
2021/12/26 02:44:54;;;;;;;;;;;;;;;-5.57;75.48;100963.69;5002039;28;19957;-78
2021/12/26 02:47:35;;;;;;;;;;;;;;;-5.61;75.45;100954.19;5001156;28;20231;-78
2021/12/26 02:50:02;;;;;;;;;;;;;;;-5.49;75.29;100951.06;5004611;28;20002;-76
2021/12/26 02:52:28;;;;;;;;;;;;;;;-5.56;75.75;100937.25;5010795;28;19922;-78
2021/12/26 02:54:53;;;;;;;;;;;;;;;-5.54;76.06;100940.72;4999099;28;19922;-78
2021/12/26 02:57:18;;;;;;;;;;;;;;;-5.57;76.11;100943.22;4998617;28;19976;-78
2021/12/26 02:59:44;;;;;;;;;;;;;;;-5.61;75.72;100933.72;4997782;28;19929;-77
2021/12/26 03:02:09;;;;;;;;;;;;;;;-5.55;75.73;100941.53;4997778;28;19917;-79
2021/12/26 03:04:35;;;;;;;;;;;;;;;-5.62;76.72;100935.44;5001693;28;19921;-80
2021/12/26 03:07:02;;;;;;;;;;;;;;;-5.61;76.63;100941.41;4997340;28;20046;-79
2021/12/26 03:09:30;;;;;;;;;;;;;;;-5.62;76.56;100937.16;5002113;28;19917;-80
2021/12/26 03:11:56;;;;;;;;;;;;;;;-5.62;76.67;100944.81;4991083;28;20439;-79
2021/12/26 03:14:21;;;;;;;;;;;;;;;-5.60;76.29;100933.78;4998248;28;20004;-79
2021/12/26 03:16:47;;;;;;;;;;;;;;;-5.69;77.23;100937.81;5008424;28;20383;-78
2021/12/26 03:19:13;;;;;;;;;;;;;;;-5.68;76.43;100934.44;4999353;28;19918;-77
2021/12/26 03:21:38;;;;;;;;;;;;;;;-5.62;76.45;100924.34;5001301;28;20494;-77
2021/12/26 03:24:03;;;;;;;;;;;;;;;-5.60;75.73;100923.53;4997616;28;20021;-78
2021/12/26 03:26:29;;;;;;;;;;;;;;;-5.52;75.69;100928.81;5002588;28;20031;-79
2021/12/26 03:28:54;;;;;;;;;;;;;;;-5.57;76.41;100925.28;4994030;28;19925;-78
2021/12/26 03:31:19;;;;;;;;;;;;;;;-5.52;76.75;100923.69;4998502;28;19997;-78
2021/12/26 03:33:45;;;;;;;;;;;;;;;-5.50;77.07;100927.13;5004485;28;20379;-79
2021/12/26 03:36:10;;;;;;;;;;;;;;;-5.48;76.60;100922.91;5006173;28;20379;-78
2021/12/26 03:38:36;;;;;;;;;;;;;;;-5.49;76.79;100931.41;4996301;28;19925;-79
2021/12/26 03:41:01;;;;;;;;;;;;;;;-5.49;77.23;100920.34;5004363;28;19921;-76
2021/12/26 03:43:27;;;;;;;;;;;;;;;-5.53;77.12;100919.41;5011817;28;20322;-79
2021/12/26 03:45:53;;;;;;;;;;;;;;;-5.54;76.94;100919.34;4998966;28;19953;-78
2021/12/26 03:48:19;;;;;;;;;;;;;;;-5.50;76.89;100919.44;4998125;28;19995;-79
2021/12/26 03:50:45;;;;;;;;;;;;;;;-5.41;76.57;100921.34;5010674;28;20440;-78
2021/12/26 03:53:11;;;;;;;;;;;;;;;-5.44;76.17;100916.16;5003958;28;19917;-78
2021/12/26 03:55:36;;;;;;;;;;;;;;;-5.47;76.45;100918.66;4994129;28;20426;-78
2021/12/26 03:58:01;;;;;;;;;;;;;;;-5.43;76.72;100923.00;4999134;28;19929;-77
2021/12/26 04:00:27;;;;;;;;;;;;;;;-5.50;75.98;100918.59;5000495;28;19922;-76
2021/12/26 04:02:53;;;;;;;;;;;;;;;-5.46;76.26;100911.00;5002565;28;20000;-76
2021/12/26 04:05:18;;;;;;;;;;;;;;;-5.42;76.78;100909.38;4996822;28;20395;-76
2021/12/26 04:07:43;;;;;;;;;;;;;;;-5.39;77.09;100909.44;4999276;28;19950;-76
2021/12/26 04:10:10;;;;;;;;;;;;;;;-5.46;76.57;100900.78;4995966;28;19999;-76
2021/12/26 04:12:37;;;;;;;;;;;;;;;-5.45;76.69;100905.06;4999311;28;19957;-76
2021/12/26 04:15:04;;;;;;;;;;;;;;;-5.47;77.04;100906.72;5032496;28;19929;-76
2021/12/26 04:17:29;;;;;;;;;;;;;;;-5.45;76.69;100904.19;4993771;28;19918;-79
2021/12/26 04:19:54;;;;;;;;;;;;;;;-5.48;77.15;100909.25;4990493;28;19928;-78
2021/12/26 04:22:20;;;;;;;;;;;;;;;-5.52;77.59;100907.47;5001790;28;19932;-79
2021/12/26 04:24:45;;;;;;;;;;;;;;;-5.53;77.10;100901.50;5006152;28;19971;-78
2021/12/26 04:27:10;;;;;;;;;;;;;;;-5.59;78.03;100906.47;5003625;28;19973;-77
2021/12/26 04:29:36;;;;;;;;;;;;;;;-5.57;77.49;100901.41;5000588;28;19956;-77
2021/12/26 04:32:01;;;;;;;;;;;;;;;-5.56;77.85;100906.53;5001170;28;19965;-75
2021/12/26 04:34:27;;;;;;;;;;;;;;;-5.53;77.23;100913.41;5001095;28;19983;-77
2021/12/26 04:36:52;;;;;;;;;;;;;;;-5.60;76.94;100902.19;5008887;28;19999;-76
2021/12/26 04:39:17;;;;;;;;;;;;;;;-5.53;77.08;100900.63;5008366;28;19929;-78
2021/12/26 04:41:45;;;;;;;;;;;;;;;-5.53;76.13;100908.28;5000455;28;19940;-78
2021/12/26 04:44:11;;;;;;;;;;;;;;;-5.53;76.34;100893.81;4998150;28;19923;-78
2021/12/26 04:46:36;;;;;;;;;;;;;;;-5.52;76.50;100902.34;4999007;28;19921;-78
2021/12/26 04:49:02;;;;;;;;;;;;;;;-5.49;76.15;100900.69;4996787;28;20359;-77
2021/12/26 04:51:27;;;;;;;;;;;;;;;-5.55;76.46;100909.94;4994846;28;19918;-79
2021/12/26 04:53:52;;;;;;;;;;;;;;;-5.51;76.53;100904.91;5002061;28;19929;-79
2021/12/26 04:56:17;;;;;;;;;;;;;;;-5.47;76.94;100900.75;4978925;28;19981;-79
2021/12/26 04:58:43;;;;;;;;;;;;;;;-5.46;76.27;100908.44;4979536;28;19918;-79
2021/12/26 05:01:08;;;;;;;;;;;;;;;-5.45;76.45;100894.81;4987485;28;19953;-80
2021/12/26 05:03:33;;;;;;;;;;;;;;;-5.47;76.85;100895.63;4987553;28;19930;-79
2021/12/26 05:05:59;;;;;;;;;;;;;;;-5.53;77.15;100900.63;4994185;28;19924;-79
2021/12/26 05:08:24;;;;;;;;;;;;;;;-5.52;77.19;100895.53;5009928;28;19924;-80
2021/12/26 05:10:49;;;;;;;;;;;;;;;-5.49;76.80;100904.97;5009764;28;19953;-80
2021/12/26 05:13:14;;;;;;;;;;;;;;;-5.55;76.95;100904.81;5004286;28;19933;-80
2021/12/26 05:15:40;;;;;;;;;;;;;;;-5.53;76.95;100900.63;5011051;28;19917;-79
2021/12/26 05:18:06;;;;;;;;;;;;;;;-5.48;77.06;100897.31;4997093;28;19933;-78
2021/12/26 05:20:32;;;;;;;;;;;;;;;-5.48;77.49;100889.63;5004434;28;19922;-81
2021/12/26 05:22:57;;;;;;;;;;;;;;;-5.53;78.08;100883.56;5006778;28;20290;-80
2021/12/26 05:25:23;;;;;;;;;;;;;;;-5.48;77.67;100876.84;5003088;28;19925;-79
2021/12/26 05:27:50;;;;;;;;;;;;;;;-5.40;77.56;100886.38;5006786;28;19949;-81
2021/12/26 05:30:17;;;;;;;;;;;;;;;-5.40;77.48;100883.81;5010775;28;20538;-79
2021/12/26 05:32:42;;;;;;;;;;;;;;;-5.48;77.61;100881.09;5016660;28;19947;-77
2021/12/26 05:35:09;;;;;;;;;;;;;;;-5.39;77.84;100877.84;5013542;28;20083;-80
2021/12/26 05:37:34;;;;;;;;;;;;;;;-5.50;78.21;100878.50;5005394;28;19932;-80
2021/12/26 05:40:02;;;;;;;;;;;;;;;-5.47;78.40;100876.00;4995482;28;19922;-78
2021/12/26 05:42:28;;;;;;;;;;;;;;;-5.53;78.42;100878.47;4995263;28;19968;-79
2021/12/26 05:44:53;;;;;;;;;;;;;;;-5.50;78.29;100878.50;5007670;28;20358;-79
2021/12/26 05:47:18;;;;;;;;;;;;;;;-5.53;78.72;100873.34;5008242;28;19922;-76
2021/12/26 05:49:44;;;;;;;;;;;;;;;-5.53;79.19;100872.44;5030308;28;20441;-80
2021/12/26 05:52:09;;;;;;;;;;;;;;;-5.49;78.67;100869.13;4996208;28;19945;-80
2021/12/26 05:54:34;;;;;;;;;;;;;;;-5.54;79.01;100871.59;4994777;28;20391;-80
2021/12/26 05:57:01;;;;;;;;;;;;;;;-5.58;78.96;100874.94;5022423;28;19945;-81
2021/12/26 05:59:26;;;;;;;;;;;;;;;-5.59;79.18;100868.97;5018348;28;19921;-81
2021/12/26 06:01:51;;;;;;;;;;;;;;;-5.54;79.24;100866.47;5013104;28;20325;-78
2021/12/26 06:04:17;;;;;;;;;;;;;;;-5.59;79.04;100868.06;4996898;28;19926;-79
2021/12/26 06:06:43;;;;;;;;;;;;;;;-5.62;78.53;100868.88;5013678;28;19924;-80
2021/12/26 06:09:09;;;;;;;;;;;;;;;-5.66;78.58;100861.97;5037204;28;19980;-80
2021/12/26 06:11:34;;;;;;;;;;;;;;;-5.60;78.55;100864.66;4999605;28;20259;-80
2021/12/26 06:13:59;;;;;;;;;;;;;;;-5.61;79.21;100864.63;5005121;28;19917;-80
2021/12/26 06:16:25;;;;;;;;;;;;;;;-5.65;79.28;100865.41;5005761;28;19936;-80
2021/12/26 06:18:50;;;;;;;;;;;;;;;-5.63;79.36;100869.72;4999428;28;20056;-78
2021/12/26 06:21:15;;;;;;;;;;;;;;;-5.71;79.82;100863.59;4992150;28;19918;-81
2021/12/26 06:23:40;;;;;;;;;;;;;;;-5.64;79.48;100862.88;5009631;28;20382;-78
2021/12/26 06:26:06;;;;;;;;;;;;;;;-5.64;79.18;100864.56;4992231;28;19917;-80
2021/12/26 06:28:31;;;;;;;;;;;;;;;-5.61;79.61;100865.50;5005877;28;19957;-78
2021/12/26 06:30:57;;;;;;;;;;;;;;;-5.63;79.12;100863.75;5003146;28;19922;-78
2021/12/26 06:33:22;;;;;;;;;;;;;;;-5.61;79.62;100872.28;5008707;28;20096;-77
2021/12/26 06:35:49;;;;;;;;;;;;;;;-5.54;79.17;100865.59;5004793;28;19926;-79
2021/12/26 06:38:14;;;;;;;;;;;;;;;-5.63;79.42;100866.31;5001870;28;20043;-79
2021/12/26 06:40:40;;;;;;;;;;;;;;;-5.61;79.39;100872.28;5008945;28;19995;-80
2021/12/26 06:43:06;;;;;;;;;;;;;;;-5.60;79.78;100864.66;4999800;28;19921;-79
2021/12/26 06:45:32;;;;;;;;;;;;;;;-5.63;79.96;100867.16;5011904;28;20395;-79
2021/12/26 06:48:01;;;;;;;;;;;;;;;-5.61;79.92;100877.41;4994121;28;20001;-80
2021/12/26 06:50:27;;;;;;;;;;;;;;;-5.54;79.66;100869.03;4997446;28;19930;-79
2021/12/26 06:52:52;;;;;;;;;;;;;;;-5.56;80.20;100870.72;5010364;28;19977;-80
2021/12/26 06:55:17;;;;;;;;;;;;;;;-5.64;79.77;100865.44;5007992;28;19964;-78
2021/12/26 06:57:43;;;;;;;;;;;;;;;-5.57;79.54;100863.00;5013260;28;19945;-79
2021/12/26 07:00:09;;;;;;;;;;;;;;;-5.54;79.07;100863.03;4990861;28;20495;-81
2021/12/26 07:02:35;;;;;;;;;;;;;;;-5.56;79.33;100857.91;5010350;28;20276;-80
2021/12/26 07:05:00;;;;;;;;;;;;;;;-5.50;79.75;100858.00;5001394;28;19925;-76
2021/12/26 07:07:26;;;;;;;;;;;;;;;-5.49;79.73;100862.31;5000731;28;19965;-81
2021/12/26 07:09:51;;;;;;;;;;;;;;;-5.48;79.21;100846.09;4998386;28;20571;-80
2021/12/26 07:12:16;;;;;;;;;;;;;;;-5.56;79.20;100852.78;5006971;28;19956;-80
2021/12/26 07:14:41;;;;;;;;;;;;;;;-5.52;79.36;100846.91;5006308;28;19921;-79
2021/12/26 07:17:07;;;;;;;;;;;;;;;-5.52;79.10;100843.47;5008880;28;19917;-80
2021/12/26 07:19:33;;;;;;;;;;;;;;;-5.45;79.11;100846.19;5000131;28;19957;-80
2021/12/26 07:21:58;;;;;;;;;;;;;;;-5.53;79.47;100845.19;5008004;28;19917;-80
2021/12/26 07:24:23;;;;;;;;;;;;;;;-5.56;79.94;100846.78;4994829;28;19924;-79
2021/12/26 07:26:48;;;;;;;;;;;;;;;-5.59;79.80;100851.03;4999133;28;19918;-78
2021/12/26 07:29:14;;;;;;;;;;;;;;;-5.55;80.11;100857.06;5007049;28;20329;-78
2021/12/26 07:31:39;;;;;;;;;;;;;;;-5.52;79.76;100849.47;4999841;28;19972;-79
2021/12/26 07:34:04;;;;;;;;;;;;;;;-5.51;80.00;100855.44;5002221;28;19926;-79
2021/12/26 07:36:29;;;;;;;;;;;;;;;-5.58;79.94;100857.00;4994913;28;19926;-80
2021/12/26 07:38:55;;;;;;;;;;;;;;;-5.56;80.08;100852.78;5005938;28;19968;-80
2021/12/26 07:41:20;;;;;;;;;;;;;;;-5.63;80.60;100850.94;5006788;28;19917;-79
2021/12/26 07:43:46;;;;;;;;;;;;;;;-5.60;80.09;100845.88;5043470;28;19917;-78
2021/12/26 07:46:11;;;;;;;;;;;;;;;-5.63;80.21;100840.72;5000419;28;19918;-78
2021/12/26 07:48:37;;;;;;;;;;;;;;;-5.58;79.77;100844.22;5004247;28;20290;-79
2021/12/26 07:51:04;;;;;;;;;;;;;;;-5.50;79.52;100839.25;4996997;28;20016;-78
2021/12/26 07:53:30;;;;;;;;;;;;;;;-5.44;79.17;100832.53;4997738;28;20319;-79
2021/12/26 07:55:55;;;;;;;;;;;;;;;-5.46;79.99;100836.78;5000887;28;20192;-78
2021/12/26 07:58:20;;;;;;;;;;;;;;;-5.50;79.50;100840.09;5007994;28;19922;-78
2021/12/26 08:00:46;;;;;;;;;;;;;;;-5.43;79.54;100841.06;5005674;28;19979;-79
2021/12/26 08:03:11;;;;;;;;;;;;;;;-5.42;79.34;100842.81;5004517;28;19953;-78
2021/12/26 08:05:36;;;;;;;;;;;;;;;-5.44;79.55;100840.22;5003625;28;19923;-78
2021/12/26 08:08:02;;;;;;;;;;;;;;;-5.41;80.37;100839.41;4999855;28;20001;-79
2021/12/26 08:10:27;;;;;;;;;;;;;;;-5.49;80.71;100861.44;5012003;28;20396;-80
2021/12/26 08:12:53;;;;;;;;;;;;;;;-5.41;80.22;100851.38;5001408;28;20401;-79
2021/12/26 08:15:18;;;;;;;;;;;;;;;-5.41;80.37;100857.34;5005226;28;20379;-80
2021/12/26 08:17:43;;;;;;;;;;;;;;;-5.40;79.52;100859.06;5001394;28;19956;-77
2021/12/26 08:20:09;;;;;;;;;;;;;;;-5.45;78.72;100853.84;4997909;28;19922;-80
2021/12/26 08:22:34;;;;;;;;;;;;;;;-5.39;78.92;100859.91;5001309;28;20029;-80
2021/12/26 08:25:00;;;;;;;;;;;;;;;-5.40;78.74;100850.53;5001825;28;19922;-79
2021/12/26 08:27:25;;;;;;;;;;;;;;;-5.34;78.36;100848.94;5005465;28;19932;-80
2021/12/26 08:29:50;;;;;;;;;;;;;;;-5.25;78.23;100838.00;5008277;28;19917;-80
2021/12/26 08:32:17;;;;;;;;;;;;;;;-5.31;78.54;100837.91;5005829;28;19999;-79
2021/12/26 08:34:43;;;;;;;;;;;;;;;-5.33;78.51;100848.09;5009267;28;20028;-82
2021/12/26 08:37:09;;;;;;;;;;;;;;;-5.30;78.12;100843.03;5018391;28;20000;-81
2021/12/26 08:39:35;;;;;;;;;;;;;;;-5.27;77.64;100844.78;5019590;28;20019;-82
2021/12/26 08:42:00;;;;;;;;;;;;;;;-5.19;77.35;100837.25;4996490;28;19945;-76
2021/12/26 08:44:26;;;;;;;;;;;;;;;-5.24;77.61;100837.16;4975150;28;19922;-79
2021/12/26 08:46:52;;;;;;;;;;;;;;;-5.15;77.60;100847.56;5003910;28;19928;-81
2021/12/26 08:49:17;;;;;;;;;;;;;;;-5.20;77.85;100841.50;5007382;28;19924;-80
2021/12/26 08:51:43;;;;;;;;;;;;;;;-5.08;77.37;100845.97;5010584;28;19921;-81
2021/12/26 08:54:09;;;;;;;;;;;;;;;-5.09;77.07;100834.00;4999998;28;19948;-79
2021/12/26 08:56:35;;;;;;;;;;;;;;;-5.04;76.70;100823.84;5011139;28;19921;-79
2021/12/26 08:59:01;;;;;;;;;;;;;;;-5.07;76.71;100832.34;4997707;28;19922;-79
2021/12/26 09:01:26;;;;;;;;;;;;;;;-5.05;76.39;100832.34;5004741;28;19945;-82
2021/12/26 09:03:51;;;;;;;;;;;;;;;-4.95;76.49;100829.09;5003754;28;19934;-82
2021/12/26 09:06:17;;;;;;;;;;;;;;;-5.00;76.76;100828.19;5003035;28;19917;-81
2021/12/26 09:08:42;;;;;;;;;;;;;;;-4.94;76.38;100830.84;5006177;28;19918;-83
2021/12/26 09:11:07;;;;;;;;;;;;;;;-4.97;75.95;100831.66;5006777;28;20302;-80
2021/12/26 09:16:13;;;;;;;;;;;;;;;-4.85;76.14;100841.22;5005617;28;20012;-79
2021/12/26 09:18:39;;;;;;;;;;;;;;;-4.88;76.11;100833.50;5004512;28;20380;-79
2021/12/26 09:21:05;;;;;;;;;;;;;;;-4.72;76.05;100834.63;5003001;28;19921;-79
2021/12/26 09:23:30;;;;;;;;;;;;;;;-4.69;75.39;100837.25;5023548;28;20001;-79
2021/12/26 09:25:56;;;;;;;;;;;;;;;-4.61;75.55;100839.91;5002654;28;19925;-79
2021/12/26 09:28:21;;;;;;;;;;;;;;;-4.57;75.90;100841.69;5002734;28;20367;-78
2021/12/26 09:30:46;;;;;;;;;;;;;;;-4.52;76.03;100839.19;5005355;28;19917;-79
2021/12/26 09:33:11;;;;;;;;;;;;;;;-4.47;75.38;100834.13;5001374;28;19972;-79
2021/12/26 09:35:37;;;;;;;;;;;;;;;-4.46;76.03;100844.41;5006695;28;19926;-78
2021/12/26 09:38:03;;;;;;;;;;;;;;;-4.39;75.47;100840.22;4998186;28;19921;-80
2021/12/26 09:40:28;;;;;;;;;;;;;;;-4.35;75.30;100840.28;5008894;28;20972;-80
2021/12/26 09:42:53;;;;;;;;;;;;;;;-4.22;75.70;100835.34;5005790;28;20016;-81
2021/12/26 09:45:19;;;;;;;;;;;;;;;-4.13;75.48;100832.88;4999886;28;19929;-80
2021/12/26 09:47:45;;;;;;;;;;;;;;;-4.07;75.21;100834.66;4999754;28;19933;-81
2021/12/26 09:50:12;;;;;;;;;;;;;;;-4.10;75.05;100820.09;5002797;28;20467;-81
2021/12/26 09:52:47;;;;;;;;;;;;;;;-4.12;74.99;100820.94;5005576;28;19945;-79
2021/12/26 09:55:13;;;;;;;;;;;;;;;-3.99;75.43;100811.69;4997250;28;19929;-80
2021/12/26 09:57:39;;;;;;;;;;;;;;;-3.99;75.75;100821.94;5007745;28;19921;-80
2021/12/26 10:00:19;;;;;;;;;;;;;;;-4.08;76.25;100808.16;4995635;28;19984;-79
2021/12/26 10:02:45;;;;;;;;;;;;;;;-3.88;75.57;100808.44;5001427;28;20490;-81
2021/12/26 10:05:10;;;;;;;;;;;;;;;-3.81;75.36;100813.63;5009770;28;19921;-78
2021/12/26 10:07:35;;;;;;;;;;;;;;;-3.74;75.59;100808.56;5011625;28;19924;-80
2021/12/26 10:10:08;;;;;;;;;;;;;;;-3.85;75.24;100809.28;4994957;28;19984;-78
2021/12/26 10:12:49;;;;;;;;;;;;;;;-3.70;75.27;100801.78;4995320;28;19925;-81
2021/12/26 10:15:14;;;;;;;;;;;;;;;-2.33;71.34;100786.63;4998790;28;19921;-81
2021/12/26 10:17:39;;;;;;;;;;;;;;;-1.48;66.80;100765.47;5004268;28;19925;-81
2021/12/26 10:20:06;;;;;;;;;;;;;;;-1.27;66.24;100771.50;4994300;28;19929;-77
2021/12/26 10:22:32;;;;;;;;;;;;;;;-1.27;64.41;100768.91;5008224;28;19917;-83
2021/12/26 10:24:57;;;;;;;;;;;;;;;-1.00;65.29;100764.63;5004251;28;20398;-83
2021/12/26 10:27:27;;;;;;;;;;;;;;;-0.44;64.02;100757.66;4997735;28;19964;-82
2021/12/26 10:29:54;;;;;;;;;;;;;;;-0.64;62.96;100761.16;4993936;28;20008;-82
2021/12/26 10:32:22;;;;;;;;;;;;;;;-0.13;62.88;100754.13;4997275;28;19918;-80
2021/12/26 10:34:49;;;;;;;;;;;;;;;-0.64;63.36;100760.28;4998439;28;20148;-78
2021/12/26 10:37:30;;;;;;;;;;;;;;;-0.93;64.57;100758.59;5001635;28;19922;-81
2021/12/26 10:39:57;;;;;;;;;;;;;;;-1.09;64.58;100755.19;5001033;28;19925;-80
2021/12/26 10:42:24;;;;;;;;;;;;;;;-1.36;65.83;100754.28;4995773;28;19925;-80
2021/12/26 10:45:04;;;;;;;;;;;;;;;-1.58;66.65;100750.84;5034698;28;20702;-79
2021/12/26 10:47:31;;;;;;;;;;;;;;;-2.20;69.15;100761.81;4997281;28;19953;-80
2021/12/26 10:49:56;;;;;;;;;;;;;;;-2.58;71.00;100770.16;4994330;28;19958;-79
2021/12/26 10:52:21;;;;;;;;;;;;;;;-2.88;72.97;100773.41;4996728;28;20562;-80
2021/12/26 10:55:02;;;;;;;;;;;;;;;-2.83;72.96;100764.00;4992210;28;19945;-81
2021/12/26 10:57:29;;;;;;;;;;;;;;;-3.02;73.60;100774.16;4998907;28;19990;-82
2021/12/26 11:00:09;;;;;;;;;;;;;;;-3.18;74.28;100769.72;4993943;28;19917;-80
2021/12/26 11:02:35;;;;;;;;;;;;;;;-3.11;73.82;100759.53;4999643;28;20004;-78
2021/12/26 11:05:04;;;;;;;;;;;;;;;-3.12;75.07;100752.66;5000322;28;20356;-78
2021/12/26 11:07:30;;;;;;;;;;;;;;;-3.07;74.80;100752.69;4996153;28;19921;-80
2021/12/26 11:10:10;;;;;;;;;;;;;;;-3.09;75.41;100754.41;5007421;28;19921;-81
2021/12/26 11:12:37;;;;;;;;;;;;;;;-3.11;76.20;100748.41;4991648;28;20015;-81
2021/12/26 11:15:03;;;;;;;;;;;;;;;-3.05;76.44;100748.44;4994960;28;19922;-78
2021/12/26 11:17:29;;;;;;;;;;;;;;;-2.85;75.13;100740.00;4994305;28;19952;-78
2021/12/26 11:19:55;;;;;;;;;;;;;;;-2.98;76.02;100744.19;4996524;28;20385;-79
2021/12/26 11:22:22;;;;;;;;;;;;;;;-2.92;75.19;100733.09;4996908;28;19926;-78
2021/12/26 11:24:48;;;;;;;;;;;;;;;-2.94;75.83;100735.66;5000218;28;20256;-76
2021/12/26 11:27:13;;;;;;;;;;;;;;;-3.01;76.24;100739.91;4996219;28;19924;-78
2021/12/26 11:29:38;;;;;;;;;;;;;;;-2.92;75.77;100736.53;4998630;28;19922;-79
2021/12/26 11:32:04;;;;;;;;;;;;;;;-2.83;76.23;100739.19;5001762;28;20402;-81
2021/12/26 11:34:30;;;;;;;;;;;;;;;-2.64;76.30;100729.00;5003378;28;19922;-80
2021/12/26 11:36:56;;;;;;;;;;;;;;;-2.79;75.94;100724.63;4998114;28;19925;-80
2021/12/26 11:39:22;;;;;;;;;;;;;;;-2.83;76.18;100720.31;4998316;28;20432;-81
2021/12/26 11:42:02;;;;;;;;;;;;;;;-2.73;76.52;100716.94;5000440;28;19929;-80
2021/12/26 11:44:37;;;;;;;;;;;;;;;-2.73;75.77;100714.38;5001076;28;19949;-81
2021/12/26 11:47:17;;;;;;;;;;;;;;;-2.66;75.66;100720.41;5002088;28;19968;-83
2021/12/26 11:50:00;;;;;;;;;;;;;;;-2.64;76.34;100709.28;5004814;28;19924;-81
2021/12/26 11:52:40;;;;;;;;;;;;;;;-2.69;76.46;100700.69;4992456;28;20741;-80
2021/12/26 11:55:21;;;;;;;;;;;;;;;-2.66;75.89;100702.41;4996990;28;20020;-80
2021/12/26 11:58:02;;;;;;;;;;;;;;;-2.53;77.04;100705.88;4999826;28;19933;-80
2021/12/26 12:00:29;;;;;;;;;;;;;;;-2.45;75.70;100704.25;4993850;28;19922;-83
2021/12/26 12:03:10;;;;;;;;;;;;;;;-2.51;76.09;100704.19;5004917;28;19929;-83
2021/12/26 12:05:36;;;;;;;;;;;;;;;-2.52;76.58;100702.47;4995810;28;20021;-81
2021/12/26 12:08:05;;;;;;;;;;;;;;;-2.56;76.91;100698.19;5008962;28;20294;-82
2021/12/26 12:10:46;;;;;;;;;;;;;;;-2.51;76.99;100704.19;5012253;28;19917;-83
2021/12/26 12:13:13;;;;;;;;;;;;;;;-2.57;76.96;100697.31;5004416;28;19972;-82
2021/12/26 12:15:54;;;;;;;;;;;;;;;-2.59;76.93;100695.59;5005119;28;20588;-82
2021/12/26 12:18:34;;;;;;;;;;;;;;;-2.47;76.77;100681.91;5010020;28;19932;-79
2021/12/26 12:21:15;;;;;;;;;;;;;;;-2.52;76.44;100687.91;5000248;28;19917;-80
2021/12/26 12:23:56;;;;;;;;;;;;;;;-2.35;76.92;100674.25;5009328;28;19917;-75
2021/12/26 12:26:37;;;;;;;;;;;;;;;-2.16;77.12;100670.03;5001591;28;20383;-78
2021/12/26 12:29:02;;;;;;;;;;;;;;;-2.07;77.01;100666.63;5007864;28;19945;-78
2021/12/26 12:31:27;;;;;;;;;;;;;;;-2.12;76.43;100661.47;5001379;28;19918;-79
2021/12/26 12:34:08;;;;;;;;;;;;;;;-2.16;76.31;100664.88;5001469;28;19953;-78
2021/12/26 12:36:36;;;;;;;;;;;;;;;-2.20;76.01;100663.13;5005967;28;19926;-78
2021/12/26 12:39:16;;;;;;;;;;;;;;;-2.04;76.08;100661.50;4997857;28;20009;-79